createdAt,value
2019-03-22T00:01:05.823Z,16.00
2019-03-22T00:03:39.357Z,16.00
2019-03-22T00:06:12.809Z,16.00
2019-03-22T00:08:47.494Z,16.00
2019-03-22T00:11:20.951Z,16.10
2019-03-22T00:13:55.835Z,16.10
2019-03-22T00:16:33.901Z,16.10
2019-03-22T00:19:07.749Z,16.10
2019-03-22T00:21:41.676Z,16.10
2019-03-22T00:24:15.936Z,16.00
2019-03-22T00:26:49.652Z,15.90
2019-03-22T00:29:23.393Z,15.90
2019-03-22T00:31:57.088Z,15.80
2019-03-22T00:34:31.255Z,15.80
2019-03-22T00:37:04.897Z,15.80
2019-03-22T00:39:39.274Z,15.70
2019-03-22T00:42:13.483Z,15.70
2019-03-22T00:44:48.118Z,15.70
2019-03-22T00:47:21.758Z,15.70
2019-03-22T00:49:55.238Z,15.70
2019-03-22T00:52:28.637Z,15.80
2019-03-22T00:55:02.213Z,15.80
2019-03-22T00:57:35.826Z,15.80
2019-03-22T01:00:11.994Z,15.80
2019-03-22T01:02:45.494Z,15.90
2019-03-22T01:05:20.661Z,15.90
2019-03-22T01:07:53.326Z,15.80
2019-03-22T01:10:27.020Z,15.70
2019-03-22T01:13:00.638Z,15.70
2019-03-22T01:15:35.074Z,15.70
2019-03-22T01:18:08.527Z,15.70
2019-03-22T01:20:43.047Z,15.70
2019-03-22T01:23:37.413Z,15.60
2019-03-22T01:26:13.238Z,15.60
2019-03-22T01:28:45.394Z,15.60
2019-03-22T01:31:18.808Z,15.50
2019-03-22T01:33:52.786Z,15.50
2019-03-22T01:36:26.431Z,15.50
2019-03-22T01:39:00.361Z,15.60
2019-03-22T01:41:36.258Z,15.60
2019-03-22T01:44:09.933Z,15.50
2019-03-22T01:46:44.091Z,15.60
2019-03-22T01:49:18.041Z,15.60
2019-03-22T01:51:51.110Z,15.50
2019-03-22T01:54:25.213Z,15.50
2019-03-22T01:56:58.797Z,15.40
2019-03-22T01:59:32.330Z,15.40
2019-03-22T02:02:06.570Z,15.40
2019-03-22T02:04:40.366Z,15.40
2019-03-22T02:07:14.317Z,15.40
2019-03-22T02:09:47.988Z,15.40
2019-03-22T02:12:21.413Z,15.50
2019-03-22T02:14:54.677Z,15.50
2019-03-22T02:17:28.510Z,15.50
2019-03-22T02:20:01.897Z,15.50
2019-03-22T02:22:35.956Z,15.50
2019-03-22T02:25:11.651Z,15.40
2019-03-22T02:27:45.438Z,15.40
2019-03-22T02:30:20.148Z,15.30
2019-03-22T02:32:53.549Z,15.30
2019-03-22T02:35:28.802Z,15.20
2019-03-22T02:38:02.316Z,15.20
2019-03-22T02:40:35.829Z,15.20
2019-03-22T02:43:09.415Z,15.20
2019-03-22T02:45:46.375Z,15.20
2019-03-22T02:48:30.315Z,15.10
2019-03-22T02:51:03.918Z,15.10
2019-03-22T02:53:37.549Z,15.10
2019-03-22T02:56:11.799Z,15.10
2019-03-22T02:58:46.000Z,15.10
2019-03-22T03:01:20.284Z,15.10
2019-03-22T03:04:06.929Z,15.10
2019-03-22T03:06:42.945Z,15.00
2019-03-22T03:09:16.321Z,15.10
2019-03-22T03:11:50.032Z,15.10
2019-03-22T03:14:23.974Z,15.10
2019-03-22T03:16:58.363Z,15.20
2019-03-22T03:19:32.087Z,15.20
2019-03-22T03:22:05.715Z,15.20
2019-03-22T03:24:39.261Z,15.20
2019-03-22T03:27:12.968Z,15.10
2019-03-22T03:29:52.388Z,15.10
2019-03-22T03:32:25.993Z,15.20
2019-03-22T03:34:59.656Z,15.20
2019-03-22T03:37:33.361Z,15.20
2019-03-22T03:40:09.607Z,15.20
2019-03-22T03:42:43.964Z,15.30
2019-03-22T03:45:34.489Z,15.30
2019-03-22T03:48:13.084Z,15.20
2019-03-22T03:50:46.727Z,15.20
2019-03-22T03:53:20.191Z,15.30
2019-03-22T03:55:54.263Z,15.30
2019-03-22T03:58:27.959Z,15.30
2019-03-22T04:01:01.265Z,15.30
2019-03-22T04:03:35.060Z,15.30
2019-03-22T04:06:09.425Z,15.30
2019-03-22T04:08:43.584Z,15.30
2019-03-22T04:11:16.957Z,15.30
2019-03-22T04:13:51.237Z,15.30
2019-03-22T04:16:24.870Z,15.30
2019-03-22T04:18:59.237Z,15.30
2019-03-22T04:21:33.221Z,15.30
2019-03-22T04:24:08.089Z,15.30
2019-03-22T04:26:42.250Z,15.30
2019-03-22T04:29:16.701Z,15.40
2019-03-22T04:31:50.439Z,15.40
2019-03-22T04:34:24.305Z,15.40
2019-03-22T04:36:58.102Z,15.40
2019-03-22T04:39:32.998Z,15.40
2019-03-22T04:42:07.443Z,15.40
2019-03-22T04:44:42.906Z,15.40
2019-03-22T04:47:18.800Z,15.40
2019-03-22T04:49:54.144Z,15.40
2019-03-22T04:52:30.239Z,15.30
2019-03-22T04:55:05.242Z,15.30
2019-03-22T04:57:40.161Z,15.30
2019-03-22T05:00:14.234Z,15.30
2019-03-22T05:02:51.812Z,15.30
2019-03-22T05:05:29.108Z,15.30
2019-03-22T05:08:08.516Z,15.30
2019-03-22T05:10:42.748Z,15.30
2019-03-22T05:13:19.951Z,15.30
2019-03-22T05:15:55.930Z,15.30
2019-03-22T05:18:31.658Z,15.30
2019-03-22T05:21:08.998Z,15.30
2019-03-22T05:23:44.101Z,15.30
2019-03-22T05:26:21.058Z,15.30
2019-03-22T05:28:56.837Z,15.30
2019-03-22T05:31:33.580Z,15.40
2019-03-22T05:34:09.187Z,15.40
2019-03-22T05:36:43.638Z,15.40
2019-03-22T05:39:17.618Z,15.30
2019-03-22T05:41:51.763Z,15.30
2019-03-22T05:44:26.278Z,15.30
2019-03-22T05:47:00.709Z,15.30
2019-03-22T05:49:35.917Z,15.20
2019-03-22T05:52:10.534Z,15.20
2019-03-22T05:54:46.053Z,15.20
2019-03-22T05:57:20.361Z,15.20
2019-03-22T05:59:55.273Z,15.20
2019-03-22T06:02:30.455Z,15.20
2019-03-22T06:05:04.441Z,15.20
2019-03-22T06:07:38.925Z,15.20
2019-03-22T06:10:13.278Z,15.20
2019-03-22T06:12:47.474Z,15.20
2019-03-22T06:15:21.966Z,15.30
2019-03-22T06:17:56.342Z,15.20
2019-03-22T06:20:32.341Z,15.20
2019-03-22T06:25:53.045Z,15.20
2019-03-22T06:28:27.354Z,15.30
2019-03-22T06:31:01.637Z,15.20
2019-03-22T06:33:35.811Z,15.20
2019-03-22T06:36:10.626Z,15.20
2019-03-22T06:38:46.327Z,15.30
2019-03-22T06:41:20.707Z,15.30
2019-03-22T06:43:54.860Z,15.30
2019-03-22T06:46:29.446Z,15.30
2019-03-22T06:49:05.419Z,15.20
2019-03-22T06:51:49.193Z,15.20
2019-03-22T06:54:31.645Z,15.20
2019-03-22T06:57:01.849Z,15.20
2019-03-22T06:59:36.344Z,15.20
2019-03-22T07:02:11.162Z,15.20
2019-03-22T07:04:45.238Z,15.20
2019-03-22T07:07:19.342Z,15.30
2019-03-22T07:09:53.461Z,15.20
2019-03-22T07:12:27.530Z,15.20
2019-03-22T07:15:03.634Z,15.20
2019-03-22T07:17:37.738Z,15.20
2019-03-22T07:20:12.535Z,15.30
2019-03-22T07:22:46.524Z,15.30
2019-03-22T07:25:20.865Z,15.30
2019-03-22T07:27:55.615Z,15.30
2019-03-22T07:30:30.989Z,15.30
2019-03-22T07:33:04.297Z,15.30
2019-03-22T07:35:39.598Z,15.30
2019-03-22T07:38:13.629Z,15.30
2019-03-22T07:41:07.788Z,15.30
2019-03-22T07:43:42.899Z,15.30
2019-03-22T07:46:17.945Z,15.30
2019-03-22T07:48:52.415Z,15.30
2019-03-22T07:51:26.819Z,15.30
2019-03-22T07:54:03.469Z,15.30
2019-03-22T07:56:37.020Z,15.30
2019-03-22T07:59:12.267Z,15.30
2019-03-22T08:01:46.374Z,15.30
2019-03-22T08:04:20.441Z,15.30
2019-03-22T08:06:54.654Z,15.30
2019-03-22T08:09:28.304Z,15.20
2019-03-22T08:12:02.246Z,15.30
2019-03-22T08:14:36.648Z,15.30
2019-03-22T08:17:10.653Z,15.30
2019-03-22T08:19:46.939Z,15.30
2019-03-22T08:22:21.055Z,15.30
2019-03-22T08:24:56.520Z,15.40
2019-03-22T08:27:50.519Z,15.40
2019-03-22T08:30:24.365Z,15.40
2019-03-22T08:33:19.369Z,15.40
2019-03-22T08:35:53.591Z,15.40
2019-03-22T08:38:28.597Z,15.30
2019-03-22T08:41:04.538Z,15.30
2019-03-22T08:43:38.071Z,15.30
2019-03-22T08:46:13.061Z,15.30
2019-03-22T08:48:52.938Z,15.30
2019-03-22T08:51:34.212Z,15.30
2019-03-22T08:54:08.678Z,15.40
2019-03-22T08:56:43.081Z,15.30
2019-03-22T08:59:17.344Z,15.30
2019-03-22T09:01:56.469Z,15.30
2019-03-22T09:04:31.445Z,15.30
2019-03-22T09:07:06.566Z,15.30
2019-03-22T09:09:42.034Z,15.30
2019-03-22T09:12:18.949Z,15.30
2019-03-22T09:14:54.873Z,15.30
2019-03-22T09:17:31.066Z,15.30
2019-03-22T09:20:05.291Z,15.30
2019-03-22T09:22:39.983Z,15.30
2019-03-22T09:25:14.542Z,15.30
2019-03-22T09:27:48.688Z,15.30
2019-03-22T09:30:23.195Z,15.30
2019-03-22T09:32:57.609Z,15.30
2019-03-22T09:35:31.812Z,15.20
2019-03-22T09:38:12.947Z,15.20
2019-03-22T09:40:42.056Z,15.20
2019-03-22T09:43:18.895Z,15.10
2019-03-22T09:45:57.225Z,15.10
2019-03-22T09:48:37.247Z,15.20
2019-03-22T09:51:25.983Z,15.20
2019-03-22T09:54:02.692Z,15.20
2019-03-22T09:56:46.400Z,15.20
2019-03-22T09:59:12.690Z,15.20
2019-03-22T10:01:47.019Z,15.20
2019-03-22T10:04:22.374Z,15.20
2019-03-22T10:06:57.937Z,15.20
2019-03-22T10:09:33.462Z,15.20
2019-03-22T10:12:08.082Z,15.20
2019-03-22T10:14:42.358Z,15.20
2019-03-22T10:17:18.078Z,15.20
2019-03-22T10:19:53.077Z,15.20
2019-03-22T10:22:29.626Z,15.10
2019-03-22T10:25:04.398Z,15.20
2019-03-22T10:27:40.278Z,15.10
2019-03-22T10:30:18.868Z,15.00
2019-03-22T10:32:52.849Z,15.00
2019-03-22T10:35:27.916Z,15.00
2019-03-22T10:38:04.732Z,15.00
2019-03-22T10:40:38.264Z,14.90
2019-03-22T10:43:12.380Z,14.90
2019-03-22T10:45:46.895Z,14.90
2019-03-22T10:48:23.259Z,14.90
2019-03-22T10:50:59.304Z,14.90
2019-03-22T10:53:33.350Z,14.90
2019-03-22T10:56:08.797Z,14.80
2019-03-22T10:58:44.098Z,14.80
2019-03-22T11:01:19.309Z,14.80
2019-03-22T11:03:53.711Z,14.80
2019-03-22T11:06:28.906Z,14.70
2019-03-22T11:09:01.847Z,14.70
2019-03-22T11:11:37.944Z,14.80
2019-03-22T11:14:12.155Z,14.80
2019-03-22T11:16:47.668Z,14.80
2019-03-22T11:19:21.825Z,14.80
2019-03-22T11:21:56.067Z,14.80
2019-03-22T11:24:31.509Z,14.80
2019-03-22T11:27:06.111Z,14.70
2019-03-22T11:29:40.039Z,14.70
2019-03-22T11:32:15.404Z,14.60
2019-03-22T11:34:49.779Z,14.60
2019-03-22T11:37:24.103Z,14.50
2019-03-22T11:39:58.491Z,14.50
2019-03-22T11:42:35.227Z,14.50
2019-03-22T11:45:13.222Z,14.60
2019-03-22T11:47:47.473Z,14.60
2019-03-22T11:50:21.514Z,14.70
2019-03-22T11:52:57.327Z,14.70
2019-03-22T11:55:32.139Z,14.60
2019-03-22T11:58:06.951Z,14.50
2019-03-22T12:00:40.825Z,14.50
2019-03-22T12:03:15.487Z,14.50
2019-03-22T12:05:52.658Z,14.50
2019-03-22T12:08:47.860Z,14.40
2019-03-22T12:11:22.155Z,14.40
2019-03-22T12:13:58.068Z,14.30
2019-03-22T12:16:34.695Z,14.30
2019-03-22T12:19:09.812Z,14.30
2019-03-22T12:21:45.088Z,14.30
2019-03-22T12:24:19.475Z,14.40
2019-03-22T12:26:55.128Z,14.40
2019-03-22T12:29:32.019Z,14.40
2019-03-22T12:32:06.825Z,14.40
2019-03-22T12:34:41.317Z,14.40
2019-03-22T12:37:15.696Z,14.40
2019-03-22T12:39:50.439Z,14.40
2019-03-22T12:42:27.817Z,14.40
2019-03-22T12:45:03.792Z,14.40
2019-03-22T12:47:42.393Z,14.40
2019-03-22T12:50:18.618Z,14.40
2019-03-22T12:52:54.195Z,14.40
2019-03-22T12:55:30.800Z,14.40
2019-03-22T12:58:07.640Z,14.40
2019-03-22T13:00:44.970Z,14.40
2019-03-22T13:03:28.544Z,14.40
2019-03-22T13:06:04.077Z,14.40
2019-03-22T13:08:39.315Z,14.40
2019-03-22T13:11:18.340Z,14.40
2019-03-22T13:13:54.801Z,14.30
2019-03-22T13:16:37.054Z,14.30
2019-03-22T13:19:12.653Z,14.30
2019-03-22T13:21:48.204Z,14.30
2019-03-22T13:27:20.122Z,14.20
2019-03-22T13:29:56.260Z,14.20
2019-03-22T13:32:30.493Z,14.20
2019-03-22T13:35:05.285Z,14.20
2019-03-22T13:37:40.360Z,14.20
2019-03-22T13:40:16.210Z,14.20
2019-03-22T13:42:51.304Z,14.20
2019-03-22T13:45:25.576Z,14.20
2019-03-22T13:48:02.689Z,14.20
2019-03-22T13:50:45.192Z,14.10
2019-03-22T13:53:21.017Z,14.10
2019-03-22T13:55:58.860Z,14.10
2019-03-22T13:58:35.962Z,14.10
2019-03-22T14:01:11.501Z,14.10
2019-03-22T14:03:46.500Z,14.10
2019-03-22T14:06:25.155Z,14.10
2019-03-22T14:09:03.014Z,14.10
2019-03-22T14:11:40.194Z,14.10
2019-03-22T14:14:17.548Z,14.10
2019-03-22T14:16:53.984Z,14.10
2019-03-22T14:19:29.474Z,14.10
2019-03-22T14:22:18.848Z,14.10
2019-03-22T14:24:55.744Z,14.10
2019-03-22T14:27:32.823Z,14.10
2019-03-22T14:30:10.283Z,14.10
2019-03-22T14:33:13.255Z,14.10
2019-03-22T14:35:56.141Z,14.00
2019-03-22T14:38:34.010Z,14.00
2019-03-22T14:41:14.677Z,14.00
2019-03-22T14:43:50.035Z,14.00
2019-03-22T14:46:26.515Z,14.00
2019-03-22T14:49:14.634Z,13.90
2019-03-22T14:51:56.932Z,14.00
2019-03-22T14:54:37.731Z,14.00
2019-03-22T14:57:16.249Z,14.00
2019-03-22T14:59:58.647Z,14.00
2019-03-22T15:02:33.203Z,14.00
2019-03-22T15:05:09.083Z,14.00
2019-03-22T15:07:46.443Z,14.00
2019-03-22T15:10:22.683Z,14.00
2019-03-22T15:13:00.634Z,14.00
2019-03-22T15:15:38.697Z,14.00
2019-03-22T15:18:28.436Z,14.00
2019-03-22T15:21:09.048Z,14.00
2019-03-22T15:24:03.719Z,14.00
2019-03-22T15:26:56.876Z,14.00
2019-03-22T15:29:57.166Z,13.90
2019-03-22T15:32:37.548Z,13.90
2019-03-22T15:35:28.284Z,13.90
2019-03-22T15:38:05.128Z,13.90
2019-03-22T15:40:39.614Z,13.80
2019-03-22T15:43:18.126Z,13.90
2019-03-22T15:45:52.785Z,14.00
2019-03-22T15:48:29.670Z,14.00
2019-03-22T15:51:10.427Z,14.00
2019-03-22T15:53:46.639Z,14.00
2019-03-22T15:56:37.638Z,13.90
2019-03-22T15:59:15.361Z,13.90
2019-03-22T16:01:58.011Z,13.80
2019-03-22T16:04:33.966Z,13.80
2019-03-22T16:07:08.726Z,13.70
2019-03-22T16:09:46.100Z,13.70
2019-03-22T16:12:23.929Z,13.70
2019-03-22T16:15:02.551Z,13.70
2019-03-22T16:17:43.159Z,13.70
2019-03-22T16:20:29.495Z,13.60
2019-03-22T16:23:03.841Z,13.70
2019-03-22T16:25:38.847Z,13.70
2019-03-22T16:28:17.676Z,13.70
2019-03-22T16:30:54.203Z,13.60
2019-03-22T16:33:27.911Z,13.70
2019-03-22T16:36:09.286Z,13.70
2019-03-22T16:38:48.530Z,13.60
2019-03-22T16:41:24.317Z,13.60
2019-03-22T16:43:58.596Z,13.60
2019-03-22T16:46:33.345Z,13.50
2019-03-22T16:49:08.233Z,13.50
2019-03-22T16:51:43.764Z,13.60
2019-03-22T16:54:26.291Z,13.70
2019-03-22T16:57:00.331Z,13.70
2019-03-22T16:59:38.040Z,13.70
2019-03-22T17:02:13.893Z,13.70
2019-03-22T17:04:49.210Z,13.70
2019-03-22T17:07:26.307Z,13.70
2019-03-22T17:10:00.821Z,13.60
2019-03-22T17:15:31.878Z,13.70
2019-03-22T17:18:08.662Z,13.70
2019-03-22T17:20:43.314Z,13.70
2019-03-22T17:23:21.077Z,13.70
2019-03-22T17:25:59.616Z,13.70
2019-03-22T17:28:35.965Z,13.70
2019-03-22T17:31:19.956Z,13.60
2019-03-22T17:34:03.338Z,13.60
2019-03-22T17:36:41.604Z,13.70
2019-03-22T17:39:19.178Z,13.60
2019-03-22T17:41:57.657Z,13.70
2019-03-22T17:44:34.394Z,13.70
2019-03-22T17:47:09.006Z,13.70
2019-03-22T17:49:48.111Z,13.70
2019-03-22T17:52:21.181Z,13.70
2019-03-22T17:54:56.092Z,13.70
2019-03-22T17:57:31.401Z,13.60
2019-03-22T18:00:05.977Z,13.60
2019-03-22T18:02:40.535Z,13.60
2019-03-22T18:05:15.151Z,13.60
2019-03-22T18:07:51.509Z,13.60
2019-03-22T18:10:24.224Z,13.50
2019-03-22T18:12:59.560Z,13.50
2019-03-22T18:15:34.591Z,13.40
2019-03-22T18:18:08.484Z,13.50
2019-03-22T18:20:42.967Z,13.50
2019-03-22T18:23:17.006Z,13.50
2019-03-22T18:25:51.556Z,13.40
2019-03-22T18:28:25.742Z,13.30
2019-03-22T18:31:00.788Z,13.30
2019-03-22T18:33:33.221Z,13.30
2019-03-22T18:36:07.050Z,13.30
2019-03-22T18:38:40.569Z,13.30
2019-03-22T18:41:14.772Z,13.20
2019-03-22T18:43:48.274Z,13.20
2019-03-22T18:46:21.781Z,13.20
2019-03-22T18:48:55.600Z,13.20
2019-03-22T18:51:29.197Z,13.20
2019-03-22T18:54:02.826Z,13.10
2019-03-22T18:56:36.512Z,13.10
2019-03-22T18:59:10.152Z,13.10
2019-03-22T19:01:44.199Z,13.10
2019-03-22T19:04:18.038Z,13.10
2019-03-22T19:06:51.604Z,13.00
2019-03-22T19:09:25.350Z,13.10
2019-03-22T19:11:58.702Z,13.10
2019-03-22T19:14:33.127Z,13.10
2019-03-22T19:17:07.921Z,13.10
2019-03-22T19:19:42.123Z,13.20
2019-03-22T19:22:15.670Z,13.20
2019-03-22T19:24:49.463Z,13.20
2019-03-22T19:27:23.049Z,13.20
2019-03-22T19:29:56.360Z,13.20
2019-03-22T19:32:30.092Z,13.30
2019-03-22T19:35:03.979Z,13.20
2019-03-22T19:37:37.378Z,13.10
2019-03-22T19:40:12.791Z,13.10
2019-03-22T19:42:46.872Z,13.10
2019-03-22T19:45:20.766Z,13.00
2019-03-22T19:47:54.028Z,13.10
2019-03-22T19:50:27.814Z,13.00
2019-03-22T19:53:01.620Z,13.00
2019-03-22T19:55:36.273Z,13.00
2019-03-22T19:58:10.211Z,13.00
2019-03-22T20:00:43.877Z,13.00
2019-03-22T20:03:18.195Z,13.00
2019-03-22T20:05:52.104Z,13.00
2019-03-22T20:08:25.691Z,13.00
2019-03-22T20:10:59.234Z,12.90
2019-03-22T20:13:33.712Z,12.90
2019-03-22T20:16:07.451Z,12.80
2019-03-22T20:18:41.634Z,12.80
2019-03-22T20:21:15.347Z,12.90
2019-03-22T20:23:53.593Z,12.80
2019-03-22T20:26:23.733Z,12.90
2019-03-22T20:28:57.400Z,12.90
2019-03-22T20:31:32.023Z,12.90
2019-03-22T20:34:05.814Z,12.90
2019-03-22T20:36:39.204Z,12.90
2019-03-22T20:39:12.668Z,12.90
2019-03-22T20:41:46.244Z,12.90
2019-03-22T20:44:20.148Z,12.80
2019-03-22T20:46:53.708Z,12.70
2019-03-22T20:49:29.918Z,12.70
2019-03-22T20:52:02.370Z,12.80
2019-03-22T20:54:37.221Z,12.70
2019-03-22T20:57:10.859Z,12.60
2019-03-22T20:59:44.064Z,12.60
2019-03-22T21:02:17.668Z,12.60
2019-03-22T21:04:51.368Z,12.70
2019-03-22T21:07:25.164Z,12.70
2019-03-22T21:10:00.367Z,12.80
2019-03-22T21:12:32.877Z,12.80
2019-03-22T21:15:10.044Z,12.80
2019-03-22T21:17:43.554Z,12.80
2019-03-22T21:20:18.011Z,12.90
2019-03-22T21:23:11.523Z,12.90
2019-03-22T21:25:45.248Z,12.90
2019-03-22T21:28:19.382Z,12.90
2019-03-22T21:30:54.195Z,12.80
2019-03-22T21:33:27.729Z,12.70
2019-03-22T21:36:00.978Z,12.80
2019-03-22T21:38:36.983Z,12.80
2019-03-22T21:41:10.913Z,12.70
2019-03-22T21:43:45.936Z,12.70
2019-03-22T21:46:20.099Z,12.70
2019-03-22T21:48:53.812Z,12.70
2019-03-22T21:51:27.415Z,12.70
2019-03-22T21:54:01.498Z,12.60
2019-03-22T21:56:35.185Z,12.60
2019-03-22T21:59:08.823Z,12.50
2019-03-22T22:01:42.752Z,12.50
2019-03-22T22:04:16.450Z,12.50
2019-03-22T22:06:50.356Z,12.60
2019-03-22T22:09:24.615Z,12.60
2019-03-22T22:11:58.802Z,12.60
2019-03-22T22:14:40.362Z,12.60
2019-03-22T22:17:07.874Z,12.60
2019-03-22T22:19:41.732Z,12.60
2019-03-22T22:22:15.328Z,12.60
2019-03-22T22:24:50.042Z,12.70
2019-03-22T22:27:24.435Z,12.60
2019-03-22T22:29:58.468Z,12.60
2019-03-22T22:32:32.059Z,12.60
2019-03-22T22:35:06.605Z,12.60
2019-03-22T22:37:40.220Z,12.60
2019-03-22T22:40:14.522Z,12.60
2019-03-22T22:42:48.225Z,12.60
2019-03-22T22:45:21.815Z,12.60
2019-03-22T22:47:56.135Z,12.50
2019-03-22T22:50:29.708Z,12.50
2019-03-22T22:53:03.354Z,12.40
2019-03-22T22:55:37.845Z,12.40
2019-03-22T22:58:12.599Z,12.40
2019-03-22T23:00:47.370Z,12.30
2019-03-22T23:03:20.799Z,12.30
2019-03-22T23:05:54.369Z,12.30
2019-03-22T23:08:27.949Z,12.30
2019-03-22T23:11:04.374Z,12.20
2019-03-22T23:13:37.980Z,12.20
2019-03-22T23:16:11.727Z,12.20
2019-03-22T23:18:45.150Z,12.20
2019-03-22T23:21:18.996Z,12.30
2019-03-22T23:23:54.477Z,12.30
2019-03-22T23:26:28.237Z,12.30
2019-03-22T23:29:02.705Z,12.30
2019-03-22T23:31:36.742Z,12.30
2019-03-22T23:34:10.471Z,12.40
2019-03-22T23:36:44.384Z,12.30
2019-03-22T23:39:17.884Z,12.30
2019-03-22T23:41:51.903Z,12.30
2019-03-22T23:44:25.841Z,12.30
2019-03-22T23:46:59.859Z,12.20
2019-03-22T23:49:34.052Z,12.30
2019-03-22T23:52:27.375Z,12.30
2019-03-22T23:55:00.866Z,12.30
2019-03-22T23:57:34.384Z,12.20
